Fisherville, Pennsylvania
Current Conditions -  °F | °C
As of 2:58 PM on Monday 24 Nov 2014 (Local Time) from KMUI Reporting Station
Scattered Clouds Scattered Clouds  
Wind Chill: 69°   Ceiling: Unl
Heat Index: 69°   Visibility: 10mi
Dew Point: 54°   Wind: 13mph
Humidity: 60%   Direction: 200°SSW
Pressure: 29.56"   Gusts: 25mph
Location:  40.4949°N, 76.8115°W
Report Text: KMUI 241958Z AUTO 20011G22KT 10SM SCT037 20/12 A2956 RMK AO2 SLP012 T02040124 $
Loading
Personal Weather Stations






























Interactive Weather Map New forecast layout! Learn more

10-Day Weather Forecast

Advertisements
Track Severe Weather on mobile